sensor_id;sensor_type;location;lat;lon;timestamp;temperature;humidity
18932;DHT22;9598;50.954;3.112;2022-12-15T00:00:31;-1.10;99.90
18932;DHT22;9598;50.954;3.112;2022-12-15T00:05:50;-1.10;99.90
18932;DHT22;9598;50.954;3.112;2022-12-15T00:11:11;-1.20;99.90
18932;DHT22;9598;50.954;3.112;2022-12-15T00:16:30;-1.20;99.90
18932;DHT22;9598;50.954;3.112;2022-12-15T00:21:50;-1.00;99.90
18932;DHT22;9598;50.954;3.112;2022-12-15T00:27:11;-1.10;99.90
18932;DHT22;9598;50.954;3.112;2022-12-15T00:32:30;-1.00;99.90
18932;DHT22;9598;50.954;3.112;2022-12-15T00:37:50;-1.00;99.90
18932;DHT22;9598;50.954;3.112;2022-12-15T00:43:11;-1.00;99.90
18932;DHT22;9598;50.954;3.112;2022-12-15T00:48:13;-1.10;99.90
18932;DHT22;9598;50.954;3.112;2022-12-15T00:53:15;-1.10;99.90
18932;DHT22;9598;50.954;3.112;2022-12-15T00:58:36;-1.10;99.90
18932;DHT22;9598;50.954;3.112;2022-12-15T01:03:55;-1.10;99.90
18932;DHT22;9598;50.954;3.112;2022-12-15T01:09:15;-1.10;99.90
18932;DHT22;9598;50.954;3.112;2022-12-15T01:14:35;-1.10;99.90
18932;DHT22;9598;50.954;3.112;2022-12-15T01:19:55;-1.10;99.90
18932;DHT22;9598;50.954;3.112;2022-12-15T01:25:16;-1.20;99.90
18932;DHT22;9598;50.954;3.112;2022-12-15T01:30:23;-1.20;99.90
18932;DHT22;9598;50.954;3.112;2022-12-15T01:35:25;-1.20;99.90
18932;DHT22;9598;50.954;3.112;2022-12-15T01:40:28;-1.20;99.90
18932;DHT22;9598;50.954;3.112;2022-12-15T01:46:01;-1.20;99.90
18932;DHT22;9598;50.954;3.112;2022-12-15T01:51:11;-1.30;99.90
18932;DHT22;9598;50.954;3.112;2022-12-15T01:56:14;-1.20;99.90
18932;DHT22;9598;50.954;3.112;2022-12-15T02:01:21;-1.30;99.90
18932;DHT22;9598;50.954;3.112;2022-12-15T02:06:24;-1.30;99.90
18932;DHT22;9598;50.954;3.112;2022-12-15T02:17:20;-1.40;99.90
18932;DHT22;9598;50.954;3.112;2022-12-15T02:22:34;-1.50;99.90
18932;DHT22;9598;50.954;3.112;2022-12-15T02:27:51;-1.50;99.90
18932;DHT22;9598;50.954;3.112;2022-12-15T02:33:10;-1.50;99.90
18932;DHT22;9598;50.954;3.112;2022-12-15T02:38:14;-1.60;99.90
18932;DHT22;9598;50.954;3.112;2022-12-15T02:43:17;-1.60;99.90
18932;DHT22;9598;50.954;3.112;2022-12-15T02:48:28;-1.60;99.90
18932;DHT22;9598;50.954;3.112;2022-12-15T02:53:46;-1.50;99.90
18932;DHT22;9598;50.954;3.112;2022-12-15T02:59:01;-1.60;99.90
18932;DHT22;9598;50.954;3.112;2022-12-15T03:04:08;-1.60;99.90
18932;DHT22;9598;50.954;3.112;2022-12-15T03:09:11;-1.70;99.90
18932;DHT22;9598;50.954;3.112;2022-12-15T03:14:14;-1.70;99.90
18932;DHT22;9598;50.954;3.112;2022-12-15T03:19:18;-1.70;99.90
18932;DHT22;9598;50.954;3.112;2022-12-15T03:24:20;-1.70;99.90
18932;DHT22;9598;50.954;3.112;2022-12-15T03:29:22;-1.70;99.90
18932;DHT22;9598;50.954;3.112;2022-12-15T03:34:25;-1.70;99.90
18932;DHT22;9598;50.954;3.112;2022-12-15T03:39:27;-1.70;99.90
18932;DHT22;9598;50.954;3.112;2022-12-15T03:44:29;-1.70;99.90
18932;DHT22;9598;50.954;3.112;2022-12-15T03:49:33;-1.70;99.90
18932;DHT22;9598;50.954;3.112;2022-12-15T03:54:35;-1.70;99.90
18932;DHT22;9598;50.954;3.112;2022-12-15T03:59:37;-1.70;99.90
18932;DHT22;9598;50.954;3.112;2022-12-15T04:04:40;-1.70;99.90
18932;DHT22;9598;50.954;3.112;2022-12-15T04:09:42;-1.70;99.90
18932;DHT22;9598;50.954;3.112;2022-12-15T04:14:44;-1.70;99.90
18932;DHT22;9598;50.954;3.112;2022-12-15T04:19:48;-1.70;99.90
18932;DHT22;9598;50.954;3.112;2022-12-15T04:25:05;-1.70;99.90
18932;DHT22;9598;50.954;3.112;2022-12-15T04:30:25;-1.70;99.90
18932;DHT22;9598;50.954;3.112;2022-12-15T04:35:47;-1.80;99.90
18932;DHT22;9598;50.954;3.112;2022-12-15T04:41:07;-1.80;99.90
18932;DHT22;9598;50.954;3.112;2022-12-15T04:46:27;-1.80;99.90
18932;DHT22;9598;50.954;3.112;2022-12-15T04:51:48;-1.80;99.90
18932;DHT22;9598;50.954;3.112;2022-12-15T04:57:09;-1.90;99.90
18932;DHT22;9598;50.954;3.112;2022-12-15T05:02:28;-1.80;99.90
18932;DHT22;9598;50.954;3.112;2022-12-15T05:07:49;-1.80;99.90
18932;DHT22;9598;50.954;3.112;2022-12-15T05:13:10;-1.80;99.90
18932;DHT22;9598;50.954;3.112;2022-12-15T05:18:29;-1.90;99.90
18932;DHT22;9598;50.954;3.112;2022-12-15T05:23:54;-1.90;99.90
18932;DHT22;9598;50.954;3.112;2022-12-15T05:29:13;-1.90;99.90
18932;DHT22;9598;50.954;3.112;2022-12-15T05:34:34;-2.00;99.90
18932;DHT22;9598;50.954;3.112;2022-12-15T05:39:38;-1.90;99.90
18932;DHT22;9598;50.954;3.112;2022-12-15T05:44:42;-1.90;99.90
18932;DHT22;9598;50.954;3.112;2022-12-15T05:49:44;-1.90;99.90
18932;DHT22;9598;50.954;3.112;2022-12-15T05:54:47;-1.90;99.90
18932;DHT22;9598;50.954;3.112;2022-12-15T05:59:52;-1.70;99.90
18932;DHT22;9598;50.954;3.112;2022-12-15T06:04:55;-1.80;99.90
18932;DHT22;9598;50.954;3.112;2022-12-15T06:09:58;-1.80;99.90
18932;DHT22;9598;50.954;3.112;2022-12-15T06:15:00;-1.80;99.90
18932;DHT22;9598;50.954;3.112;2022-12-15T06:20:02;-1.80;99.90
18932;DHT22;9598;50.954;3.112;2022-12-15T06:25:07;-1.80;99.90
18932;DHT22;9598;50.954;3.112;2022-12-15T06:30:10;-1.80;99.90
18932;DHT22;9598;50.954;3.112;2022-12-15T06:35:12;-1.80;99.90
18932;DHT22;9598;50.954;3.112;2022-12-15T06:40:16;-1.80;99.90
18932;DHT22;9598;50.954;3.112;2022-12-15T06:45:18;-1.80;99.90
18932;DHT22;9598;50.954;3.112;2022-12-15T06:50:20;-1.80;99.90
18932;DHT22;9598;50.954;3.112;2022-12-15T06:55:23;-1.80;99.90
18932;DHT22;9598;50.954;3.112;2022-12-15T07:00:25;-1.80;99.90
18932;DHT22;9598;50.954;3.112;2022-12-15T07:05:28;-1.80;99.90
18932;DHT22;9598;50.954;3.112;2022-12-15T07:10:37;-1.80;99.90
18932;DHT22;9598;50.954;3.112;2022-12-15T07:15:39;-1.80;99.90
18932;DHT22;9598;50.954;3.112;2022-12-15T07:20:43;-1.80;99.90
18932;DHT22;9598;50.954;3.112;2022-12-15T07:25:52;-1.70;99.90
18932;DHT22;9598;50.954;3.112;2022-12-15T07:31:02;-1.80;99.90
18932;DHT22;9598;50.954;3.112;2022-12-15T07:36:05;-1.80;99.90
18932;DHT22;9598;50.954;3.112;2022-12-15T07:41:10;-1.80;99.90
18932;DHT22;9598;50.954;3.112;2022-12-15T07:46:12;-1.80;99.90
18932;DHT22;9598;50.954;3.112;2022-12-15T07:51:14;-1.80;99.90
18932;DHT22;9598;50.954;3.112;2022-12-15T07:56:19;-1.80;99.90
18932;DHT22;9598;50.954;3.112;2022-12-15T08:01:21;-1.90;99.90
18932;DHT22;9598;50.954;3.112;2022-12-15T08:06:24;-1.90;99.90
18932;DHT22;9598;50.954;3.112;2022-12-15T08:11:32;-2.00;99.90
18932;DHT22;9598;50.954;3.112;2022-12-15T08:16:35;-2.00;99.90
18932;DHT22;9598;50.954;3.112;2022-12-15T08:21:38;-2.00;99.90
18932;DHT22;9598;50.954;3.112;2022-12-15T08:26:45;-1.90;99.90
18932;DHT22;9598;50.954;3.112;2022-12-15T08:31:48;-1.90;99.90
18932;DHT22;9598;50.954;3.112;2022-12-15T08:36:50;-1.80;99.90
18932;DHT22;9598;50.954;3.112;2022-12-15T08:41:54;-1.80;99.90
18932;DHT22;9598;50.954;3.112;2022-12-15T08:46:57;-1.80;99.90
18932;DHT22;9598;50.954;3.112;2022-12-15T08:52:01;-1.70;99.90
18932;DHT22;9598;50.954;3.112;2022-12-15T08:57:04;-1.70;99.90
18932;DHT22;9598;50.954;3.112;2022-12-15T09:02:09;-1.70;99.90
18932;DHT22;9598;50.954;3.112;2022-12-15T09:07:11;-1.60;99.90
18932;DHT22;9598;50.954;3.112;2022-12-15T09:12:17;-1.60;99.90
18932;DHT22;9598;50.954;3.112;2022-12-15T09:17:19;-1.60;99.90
18932;DHT22;9598;50.954;3.112;2022-12-15T09:22:21;-1.60;99.90
18932;DHT22;9598;50.954;3.112;2022-12-15T09:27:25;-1.50;99.90
18932;DHT22;9598;50.954;3.112;2022-12-15T09:32:28;-1.40;99.90
18932;DHT22;9598;50.954;3.112;2022-12-15T09:37:30;-1.30;99.90
18932;DHT22;9598;50.954;3.112;2022-12-15T09:42:34;-1.20;99.90
18932;DHT22;9598;50.954;3.112;2022-12-15T09:47:41;-1.10;99.90
18932;DHT22;9598;50.954;3.112;2022-12-15T09:52:50;-1.00;99.90
18932;DHT22;9598;50.954;3.112;2022-12-15T09:57:58;-1.00;99.90
18932;DHT22;9598;50.954;3.112;2022-12-15T10:03:36;-0.90;99.90
18932;DHT22;9598;50.954;3.112;2022-12-15T10:08:41;-0.80;99.90
18932;DHT22;9598;50.954;3.112;2022-12-15T10:13:50;-0.70;99.90
18932;DHT22;9598;50.954;3.112;2022-12-15T10:19:02;-0.60;99.90
18932;DHT22;9598;50.954;3.112;2022-12-15T10:24:16;-0.60;99.90
18932;DHT22;9598;50.954;3.112;2022-12-15T10:29:32;-0.60;99.90
18932;DHT22;9598;50.954;3.112;2022-12-15T10:34:36;-0.60;99.90
18932;DHT22;9598;50.954;3.112;2022-12-15T10:39:41;-0.50;99.90
18932;DHT22;9598;50.954;3.112;2022-12-15T10:44:46;-0.40;99.90
18932;DHT22;9598;50.954;3.112;2022-12-15T10:49:49;-0.40;99.90
18932;DHT22;9598;50.954;3.112;2022-12-15T10:54:52;-0.30;99.90
18932;DHT22;9598;50.954;3.112;2022-12-15T11:00:25;-0.20;99.90
18932;DHT22;9598;50.954;3.112;2022-12-15T11:05:28;-0.10;99.90
18932;DHT22;9598;50.954;3.112;2022-12-15T11:10:32;0.10;99.90
18932;DHT22;9598;50.954;3.112;2022-12-15T11:15:50;0.20;99.90
18932;DHT22;9598;50.954;3.112;2022-12-15T11:20:58;0.30;99.90
18932;DHT22;9598;50.954;3.112;2022-12-15T11:26:19;0.40;99.90
18932;DHT22;9598;50.954;3.112;2022-12-15T11:31:30;0.60;99.90
18932;DHT22;9598;50.954;3.112;2022-12-15T11:37:01;0.70;99.90
18932;DHT22;9598;50.954;3.112;2022-12-15T11:42:13;0.80;99.90
18932;DHT22;9598;50.954;3.112;2022-12-15T11:47:24;1.00;99.90
18932;DHT22;9598;50.954;3.112;2022-12-15T11:53:00;1.10;99.90
18932;DHT22;9598;50.954;3.112;2022-12-15T11:58:46;1.20;99.90
18932;DHT22;9598;50.954;3.112;2022-12-15T12:04:02;1.30;99.90
18932;DHT22;9598;50.954;3.112;2022-12-15T12:09:29;1.40;99.90
18932;DHT22;9598;50.954;3.112;2022-12-15T12:14:41;1.50;99.90
18932;DHT22;9598;50.954;3.112;2022-12-15T12:19:48;1.70;99.90
18932;DHT22;9598;50.954;3.112;2022-12-15T12:24:56;1.80;99.90
18932;DHT22;9598;50.954;3.112;2022-12-15T12:30:04;1.90;99.90
18932;DHT22;9598;50.954;3.112;2022-12-15T12:35:13;2.10;99.90
18932;DHT22;9598;50.954;3.112;2022-12-15T12:40:18;2.10;99.90
18932;DHT22;9598;50.954;3.112;2022-12-15T12:45:28;2.30;99.90
18932;DHT22;9598;50.954;3.112;2022-12-15T12:50:34;2.40;99.90
18932;DHT22;9598;50.954;3.112;2022-12-15T12:55:38;2.50;99.90
18932;DHT22;9598;50.954;3.112;2022-12-15T13:01:05;2.60;99.90
18932;DHT22;9598;50.954;3.112;2022-12-15T13:06:56;2.70;99.90
18932;DHT22;9598;50.954;3.112;2022-12-15T13:11:59;2.80;99.90
18932;DHT22;9598;50.954;3.112;2022-12-15T13:17:04;2.90;99.90
18932;DHT22;9598;50.954;3.112;2022-12-15T13:22:22;3.00;99.90
18932;DHT22;9598;50.954;3.112;2022-12-15T13:27:33;3.10;99.90
18932;DHT22;9598;50.954;3.112;2022-12-15T13:32:37;3.20;99.90
18932;DHT22;9598;50.954;3.112;2022-12-15T13:37:52;3.30;99.90
18932;DHT22;9598;50.954;3.112;2022-12-15T13:42:56;3.40;99.90
18932;DHT22;9598;50.954;3.112;2022-12-15T13:47:58;3.50;99.90
18932;DHT22;9598;50.954;3.112;2022-12-15T13:53:05;3.50;99.90
18932;DHT22;9598;50.954;3.112;2022-12-15T13:58:13;3.60;99.90
18932;DHT22;9598;50.954;3.112;2022-12-15T14:03:16;3.70;99.90
18932;DHT22;9598;50.954;3.112;2022-12-15T14:08:22;3.70;99.90
18932;DHT22;9598;50.954;3.112;2022-12-15T14:13:26;3.80;99.90
18932;DHT22;9598;50.954;3.112;2022-12-15T14:18:31;3.80;99.90
18932;DHT22;9598;50.954;3.112;2022-12-15T14:23:41;3.80;99.90
18932;DHT22;9598;50.954;3.112;2022-12-15T14:28:46;3.80;99.90
18932;DHT22;9598;50.954;3.112;2022-12-15T14:33:59;3.80;99.90
18932;DHT22;9598;50.954;3.112;2022-12-15T14:39:09;3.80;99.90
18932;DHT22;9598;50.954;3.112;2022-12-15T14:44:16;3.70;99.90
18932;DHT22;9598;50.954;3.112;2022-12-15T14:49:20;3.70;99.90
18932;DHT22;9598;50.954;3.112;2022-12-15T14:54:36;3.60;99.90
18932;DHT22;9598;50.954;3.112;2022-12-15T14:59:40;3.60;99.90
18932;DHT22;9598;50.954;3.112;2022-12-15T15:04:45;3.60;99.90
18932;DHT22;9598;50.954;3.112;2022-12-15T15:09:58;3.50;99.90
18932;DHT22;9598;50.954;3.112;2022-12-15T15:15:02;3.40;99.90
18932;DHT22;9598;50.954;3.112;2022-12-15T15:20:14;3.40;99.90
18932;DHT22;9598;50.954;3.112;2022-12-15T15:25:26;3.40;99.90
18932;DHT22;9598;50.954;3.112;2022-12-15T15:30:38;3.30;99.90
18932;DHT22;9598;50.954;3.112;2022-12-15T15:35:42;3.10;99.90
18932;DHT22;9598;50.954;3.112;2022-12-15T15:40:54;3.10;99.90
18932;DHT22;9598;50.954;3.112;2022-12-15T15:46:00;3.00;99.90
18932;DHT22;9598;50.954;3.112;2022-12-15T15:51:04;2.90;99.90
18932;DHT22;9598;50.954;3.112;2022-12-15T15:56:09;2.80;99.90
18932;DHT22;9598;50.954;3.112;2022-12-15T16:01:11;2.70;99.90
18932;DHT22;9598;50.954;3.112;2022-12-15T16:06:16;2.60;99.90
18932;DHT22;9598;50.954;3.112;2022-12-15T16:11:21;2.50;99.90
18932;DHT22;9598;50.954;3.112;2022-12-15T16:16:27;2.40;99.90
18932;DHT22;9598;50.954;3.112;2022-12-15T16:21:30;2.30;99.90
18932;DHT22;9598;50.954;3.112;2022-12-15T16:26:34;2.20;99.90
18932;DHT22;9598;50.954;3.112;2022-12-15T16:31:38;2.10;99.90
18932;DHT22;9598;50.954;3.112;2022-12-15T16:36:45;2.00;99.90
18932;DHT22;9598;50.954;3.112;2022-12-15T16:41:49;1.90;99.90
18932;DHT22;9598;50.954;3.112;2022-12-15T16:46:52;1.80;99.90
18932;DHT22;9598;50.954;3.112;2022-12-15T16:51:54;1.70;99.90
18932;DHT22;9598;50.954;3.112;2022-12-15T16:56:58;1.70;99.90
18932;DHT22;9598;50.954;3.112;2022-12-15T17:02:00;1.60;99.90
18932;DHT22;9598;50.954;3.112;2022-12-15T17:07:03;1.60;99.90
18932;DHT22;9598;50.954;3.112;2022-12-15T17:12:12;1.50;99.90
18932;DHT22;9598;50.954;3.112;2022-12-15T17:17:17;1.50;99.90
18932;DHT22;9598;50.954;3.112;2022-12-15T17:22:19;1.40;99.90
18932;DHT22;9598;50.954;3.112;2022-12-15T17:27:25;1.40;99.90
18932;DHT22;9598;50.954;3.112;2022-12-15T17:32:29;1.30;99.90
18932;DHT22;9598;50.954;3.112;2022-12-15T17:37:32;1.30;99.90
18932;DHT22;9598;50.954;3.112;2022-12-15T17:42:36;1.20;99.90
18932;DHT22;9598;50.954;3.112;2022-12-15T17:47:38;1.20;99.90
18932;DHT22;9598;50.954;3.112;2022-12-15T17:52:45;1.10;99.90
18932;DHT22;9598;50.954;3.112;2022-12-15T17:57:50;1.10;99.90
18932;DHT22;9598;50.954;3.112;2022-12-15T18:02:54;1.00;99.90
18932;DHT22;9598;50.954;3.112;2022-12-15T18:07:58;1.00;99.90
18932;DHT22;9598;50.954;3.112;2022-12-15T18:13:04;0.90;99.90
18932;DHT22;9598;50.954;3.112;2022-12-15T18:18:13;0.90;99.90
18932;DHT22;9598;50.954;3.112;2022-12-15T18:23:18;0.90;99.90
18932;DHT22;9598;50.954;3.112;2022-12-15T18:28:23;0.90;99.90
18932;DHT22;9598;50.954;3.112;2022-12-15T18:33:27;0.80;99.90
18932;DHT22;9598;50.954;3.112;2022-12-15T18:38:30;0.90;99.90
18932;DHT22;9598;50.954;3.112;2022-12-15T18:43:33;0.80;99.90
18932;DHT22;9598;50.954;3.112;2022-12-15T18:48:35;0.70;99.90
18932;DHT22;9598;50.954;3.112;2022-12-15T18:53:39;0.70;99.90
18932;DHT22;9598;50.954;3.112;2022-12-15T18:58:43;0.80;99.90
18932;DHT22;9598;50.954;3.112;2022-12-15T19:03:45;0.80;99.90
18932;DHT22;9598;50.954;3.112;2022-12-15T19:08:48;0.80;99.90
18932;DHT22;9598;50.954;3.112;2022-12-15T19:13:52;0.80;99.90
18932;DHT22;9598;50.954;3.112;2022-12-15T19:18:54;0.80;99.90
18932;DHT22;9598;50.954;3.112;2022-12-15T19:24:15;0.90;99.90
18932;DHT22;9598;50.954;3.112;2022-12-15T19:29:20;0.90;99.90
18932;DHT22;9598;50.954;3.112;2022-12-15T19:34:22;0.90;99.90
18932;DHT22;9598;50.954;3.112;2022-12-15T19:39:24;0.90;99.90
18932;DHT22;9598;50.954;3.112;2022-12-15T19:44:28;0.80;99.90
18932;DHT22;9598;50.954;3.112;2022-12-15T19:49:30;0.80;99.90
18932;DHT22;9598;50.954;3.112;2022-12-15T19:54:32;0.80;99.90
18932;DHT22;9598;50.954;3.112;2022-12-15T19:59:36;0.80;99.90
18932;DHT22;9598;50.954;3.112;2022-12-15T20:04:38;0.70;99.90
18932;DHT22;9598;50.954;3.112;2022-12-15T20:09:40;0.70;99.90
18932;DHT22;9598;50.954;3.112;2022-12-15T20:14:44;0.70;99.90
18932;DHT22;9598;50.954;3.112;2022-12-15T20:19:46;0.70;99.90
18932;DHT22;9598;50.954;3.112;2022-12-15T20:24:48;0.70;99.90
18932;DHT22;9598;50.954;3.112;2022-12-15T20:29:52;0.80;99.90
18932;DHT22;9598;50.954;3.112;2022-12-15T20:34:54;0.80;99.90
18932;DHT22;9598;50.954;3.112;2022-12-15T20:39:56;0.70;99.90
18932;DHT22;9598;50.954;3.112;2022-12-15T20:44:59;0.70;99.90
18932;DHT22;9598;50.954;3.112;2022-12-15T20:50:02;0.70;99.90
18932;DHT22;9598;50.954;3.112;2022-12-15T20:55:08;0.70;99.90
18932;DHT22;9598;50.954;3.112;2022-12-15T21:00:13;0.80;99.90
18932;DHT22;9598;50.954;3.112;2022-12-15T21:05:18;0.80;99.90
18932;DHT22;9598;50.954;3.112;2022-12-15T21:10:20;0.80;99.90
18932;DHT22;9598;50.954;3.112;2022-12-15T21:15:23;0.80;99.90
18932;DHT22;9598;50.954;3.112;2022-12-15T21:20:25;0.80;99.90
18932;DHT22;9598;50.954;3.112;2022-12-15T21:25:28;0.90;99.90
18932;DHT22;9598;50.954;3.112;2022-12-15T21:30:32;1.00;99.90
18932;DHT22;9598;50.954;3.112;2022-12-15T21:35:35;1.00;99.90
18932;DHT22;9598;50.954;3.112;2022-12-15T21:40:39;1.10;99.90
18932;DHT22;9598;50.954;3.112;2022-12-15T21:45:43;1.10;99.90
18932;DHT22;9598;50.954;3.112;2022-12-15T21:50:46;1.00;99.90
18932;DHT22;9598;50.954;3.112;2022-12-15T21:55:48;1.10;99.90
18932;DHT22;9598;50.954;3.112;2022-12-15T22:00:52;1.00;99.90
18932;DHT22;9598;50.954;3.112;2022-12-15T22:05:54;1.10;99.90
18932;DHT22;9598;50.954;3.112;2022-12-15T22:10:56;1.00;99.90
18932;DHT22;9598;50.954;3.112;2022-12-15T22:15:59;1.00;99.90
18932;DHT22;9598;50.954;3.112;2022-12-15T22:21:04;1.00;99.90
18932;DHT22;9598;50.954;3.112;2022-12-15T22:26:18;1.00;99.90
18932;DHT22;9598;50.954;3.112;2022-12-15T22:31:22;1.00;99.90
18932;DHT22;9598;50.954;3.112;2022-12-15T22:36:25;1.00;99.90
18932;DHT22;9598;50.954;3.112;2022-12-15T22:41:27;1.00;99.90
18932;DHT22;9598;50.954;3.112;2022-12-15T22:46:30;0.90;99.90
18932;DHT22;9598;50.954;3.112;2022-12-15T22:51:32;1.00;99.90
18932;DHT22;9598;50.954;3.112;2022-12-15T22:56:37;0.90;99.90
18932;DHT22;9598;50.954;3.112;2022-12-15T23:01:41;0.90;99.90
18932;DHT22;9598;50.954;3.112;2022-12-15T23:06:43;0.90;99.90
18932;DHT22;9598;50.954;3.112;2022-12-15T23:11:46;0.90;99.90
18932;DHT22;9598;50.954;3.112;2022-12-15T23:16:49;0.90;99.90
18932;DHT22;9598;50.954;3.112;2022-12-15T23:21:51;0.90;99.90
18932;DHT22;9598;50.954;3.112;2022-12-15T23:26:55;0.90;99.90
18932;DHT22;9598;50.954;3.112;2022-12-15T23:31:58;0.90;99.90
18932;DHT22;9598;50.954;3.112;2022-12-15T23:37:00;0.80;99.90
18932;DHT22;9598;50.954;3.112;2022-12-15T23:42:02;0.80;99.90
18932;DHT22;9598;50.954;3.112;2022-12-15T23:47:10;0.70;99.90
18932;DHT22;9598;50.954;3.112;2022-12-15T23:52:13;0.70;99.90
18932;DHT22;9598;50.954;3.112;2022-12-15T23:57:15;0.70;99.90
